createdAt,value
2022-12-19T00:01:22.534Z,61.00
2022-12-19T00:03:57.197Z,80.70
2022-12-19T00:06:29.660Z,73.50
2022-12-19T00:09:01.639Z,82.70
2022-12-19T00:11:33.478Z,96.00
2022-12-19T00:14:04.554Z,80.60
2022-12-19T00:16:36.226Z,106.60
2022-12-19T00:19:07.360Z,88.30
2022-12-19T00:21:38.442Z,67.00
2022-12-19T00:24:20.398Z,66.50
2022-12-19T00:26:52.279Z,51.20
2022-12-19T00:29:23.082Z,41.30
2022-12-19T00:31:54.087Z,39.50
2022-12-19T00:34:25.415Z,52.30
2022-12-19T00:36:56.179Z,50.10
2022-12-19T00:39:27.331Z,44.20
2022-12-19T00:41:58.404Z,58.50
2022-12-19T00:44:29.519Z,55.70
2022-12-19T00:47:00.770Z,60.00
2022-12-19T00:49:31.742Z,48.50
2022-12-19T00:52:03.078Z,35.90
2022-12-19T00:54:34.218Z,28.00
2022-12-19T00:57:05.267Z,40.00
2022-12-19T00:59:36.048Z,31.70
2022-12-19T01:02:07.023Z,36.50
2022-12-19T01:04:41.532Z,32.20
2022-12-19T01:07:12.950Z,35.70
2022-12-19T01:09:44.054Z,36.60
2022-12-19T01:12:33.963Z,44.30
2022-12-19T01:15:05.487Z,44.60
2022-12-19T01:17:43.659Z,34.20
2022-12-19T01:20:16.366Z,16.60
2022-12-19T01:22:49.031Z,22.30
2022-12-19T01:25:20.290Z,28.30
2022-12-19T01:27:51.388Z,23.20
2022-12-19T01:30:22.478Z,28.10
2022-12-19T01:32:54.241Z,22.10
2022-12-19T01:35:25.997Z,14.40
2022-12-19T01:40:39.536Z,30.60
2022-12-19T01:43:17.492Z,22.70
2022-12-19T01:45:50.953Z,17.00
2022-12-19T01:48:29.533Z,24.20
2022-12-19T01:51:03.919Z,16.50
2022-12-19T01:53:49.419Z,27.50
2022-12-19T01:56:26.116Z,20.80
2022-12-19T01:59:05.713Z,27.10
2022-12-19T02:01:39.625Z,22.30
2022-12-19T02:04:22.449Z,24.20
2022-12-19T02:06:55.072Z,19.00
2022-12-19T02:09:29.032Z,22.90
2022-12-19T02:12:02.035Z,26.50
2022-12-19T02:14:33.216Z,27.00
2022-12-19T02:17:11.241Z,27.30
2022-12-19T02:20:07.929Z,22.20
2022-12-19T02:22:53.027Z,21.80
2022-12-19T02:25:51.343Z,26.20
2022-12-19T02:28:57.419Z,23.80
2022-12-19T02:31:32.388Z,20.60
2022-12-19T02:34:13.173Z,18.10
2022-12-19T02:36:49.650Z,16.30
2022-12-19T02:39:27.233Z,24.70
2022-12-19T02:42:02.296Z,21.20
2022-12-19T02:44:37.612Z,25.90
2022-12-19T02:47:10.455Z,16.00
2022-12-19T02:49:41.645Z,22.40
2022-12-19T02:52:14.182Z,19.10
2022-12-19T02:54:45.514Z,23.50
2022-12-19T02:57:26.645Z,29.50
2022-12-19T03:00:04.810Z,24.30
2022-12-19T03:03:00.312Z,21.60
2022-12-19T03:05:43.046Z,35.40
2022-12-19T03:08:25.639Z,16.70
2022-12-19T03:11:02.308Z,7.80
2022-12-19T03:13:36.327Z,18.60
2022-12-19T03:16:11.243Z,21.20
2022-12-19T03:18:43.176Z,22.80
2022-12-19T03:21:21.709Z,22.10
2022-12-19T03:23:55.341Z,14.30
2022-12-19T03:26:29.847Z,24.10
2022-12-19T03:29:06.806Z,22.50
2022-12-19T03:31:39.741Z,21.70
2022-12-19T03:34:16.834Z,23.60
2022-12-19T03:36:53.519Z,15.10
2022-12-19T03:39:26.382Z,29.70
2022-12-19T03:42:16.156Z,21.00
2022-12-19T03:44:48.087Z,28.70
2022-12-19T03:49:51.826Z,19.10
2022-12-19T03:52:34.468Z,19.50
2022-12-19T03:55:12.414Z,26.00
2022-12-19T03:57:51.322Z,14.90
2022-12-19T04:00:24.901Z,17.60
2022-12-19T04:02:59.748Z,23.10
2022-12-19T04:05:31.341Z,21.10
2022-12-19T04:08:06.029Z,21.40
2022-12-19T04:10:42.919Z,14.70
2022-12-19T04:13:18.156Z,24.50
2022-12-19T04:16:00.176Z,19.80
2022-12-19T04:18:31.821Z,15.30
2022-12-19T04:21:09.389Z,26.30
2022-12-19T04:23:46.029Z,18.40
2022-12-19T04:26:19.926Z,19.90
2022-12-19T04:28:57.478Z,18.70
2022-12-19T04:31:28.531Z,26.80
2022-12-19T04:33:59.617Z,24.90
2022-12-19T04:36:30.865Z,25.00
2022-12-19T04:39:02.143Z,30.30
2022-12-19T04:41:33.246Z,23.80
2022-12-19T04:44:04.266Z,28.50
2022-12-19T04:46:35.309Z,18.90
2022-12-19T04:49:06.648Z,23.30
2022-12-19T04:51:37.780Z,26.10
2022-12-19T04:54:08.701Z,17.70
2022-12-19T04:56:39.931Z,25.80
2022-12-19T04:59:11.300Z,22.90
2022-12-19T05:01:42.494Z,24.70
2022-12-19T05:04:13.570Z,25.10
2022-12-19T05:06:44.585Z,26.50
2022-12-19T05:09:15.660Z,23.60
2022-12-19T05:11:46.592Z,22.00
2022-12-19T05:14:17.701Z,19.80
2022-12-19T05:16:48.840Z,19.30
2022-12-19T05:19:19.842Z,15.40
2022-12-19T05:21:51.193Z,26.60
2022-12-19T05:24:22.140Z,11.60
2022-12-19T05:26:53.527Z,14.60
2022-12-19T05:29:24.619Z,21.60
2022-12-19T05:31:55.755Z,16.10
2022-12-19T05:34:27.006Z,23.10
2022-12-19T05:36:57.997Z,21.30
2022-12-19T05:39:29.373Z,21.70
2022-12-19T05:42:01.176Z,17.20
2022-12-19T05:44:32.559Z,26.00
2022-12-19T05:47:03.736Z,16.30
2022-12-19T05:49:34.882Z,16.80
2022-12-19T05:52:05.783Z,18.90
2022-12-19T05:54:37.277Z,19.70
2022-12-19T05:57:08.270Z,21.20
2022-12-19T05:59:39.355Z,20.90
2022-12-19T06:02:10.380Z,16.30
2022-12-19T06:04:41.334Z,19.90
2022-12-19T06:07:16.456Z,20.50
2022-12-19T06:09:50.326Z,16.80
2022-12-19T06:12:21.120Z,17.20
2022-12-19T06:14:51.932Z,20.00
2022-12-19T06:17:23.126Z,19.80
2022-12-19T06:19:54.242Z,19.40
2022-12-19T06:22:25.078Z,22.90
2022-12-19T06:24:56.073Z,17.40
2022-12-19T06:27:27.251Z,20.70
2022-12-19T06:29:58.692Z,16.00
2022-12-19T06:35:06.219Z,21.20
2022-12-19T06:37:39.506Z,11.10
2022-12-19T06:40:33.963Z,20.10
2022-12-19T06:43:04.989Z,21.50
2022-12-19T06:45:36.085Z,19.20
2022-12-19T06:48:07.229Z,22.00
2022-12-19T06:50:38.153Z,15.20
2022-12-19T06:53:09.147Z,24.80
2022-12-19T06:55:40.703Z,20.00
2022-12-19T06:58:11.663Z,22.80
2022-12-19T07:00:43.022Z,18.30
2022-12-19T07:03:18.231Z,24.30
2022-12-19T07:05:49.614Z,32.30
2022-12-19T07:08:20.599Z,23.60
2022-12-19T07:10:52.986Z,20.10
2022-12-19T07:13:24.020Z,17.00
2022-12-19T07:15:56.100Z,22.10
2022-12-19T07:18:27.448Z,27.00
2022-12-19T07:20:59.153Z,24.80
2022-12-19T07:23:30.273Z,29.90
2022-12-19T07:26:01.568Z,20.60
2022-12-19T07:28:34.063Z,21.90
2022-12-19T07:31:05.586Z,16.70
2022-12-19T07:33:36.372Z,27.20
2022-12-19T07:36:08.419Z,26.10
2022-12-19T07:38:39.332Z,25.30
2022-12-19T07:41:10.295Z,11.00
2022-12-19T07:43:41.319Z,23.90
2022-12-19T07:46:12.720Z,25.10
2022-12-19T07:48:43.982Z,13.80
2022-12-19T07:51:14.796Z,22.60
2022-12-19T07:53:45.598Z,16.30
2022-12-19T07:56:17.454Z,27.70
2022-12-19T07:58:48.409Z,22.30
2022-12-19T08:01:19.487Z,15.30
2022-12-19T08:03:51.228Z,23.00
2022-12-19T08:06:22.316Z,21.40
2022-12-19T08:08:53.334Z,29.60
2022-12-19T08:11:27.451Z,25.10
2022-12-19T08:13:58.625Z,16.50
2022-12-19T08:16:29.970Z,24.30
2022-12-19T08:19:01.157Z,16.20
2022-12-19T08:21:32.503Z,16.40
2022-12-19T08:24:04.179Z,28.70
2022-12-19T08:29:11.747Z,51.30
2022-12-19T08:31:42.836Z,19.90
2022-12-19T08:34:13.684Z,16.80
2022-12-19T08:36:44.668Z,22.50
2022-12-19T08:39:15.685Z,16.30
2022-12-19T08:41:46.603Z,26.10
2022-12-19T08:44:20.290Z,21.80
2022-12-19T08:46:51.170Z,25.50
2022-12-19T08:49:22.518Z,27.60
2022-12-19T08:51:53.527Z,32.10
2022-12-19T08:54:24.622Z,30.60
2022-12-19T08:56:55.602Z,24.40
2022-12-19T08:59:31.019Z,26.00
2022-12-19T09:02:02.721Z,28.10
2022-12-19T09:07:23.412Z,17.80
2022-12-19T09:09:55.055Z,22.40
2022-12-19T09:12:26.024Z,19.40
2022-12-19T09:14:56.825Z,23.00
2022-12-19T09:17:30.243Z,25.70
2022-12-19T09:20:02.072Z,26.50
2022-12-19T09:22:33.321Z,14.70
2022-12-19T09:25:04.624Z,18.60
2022-12-19T09:28:01.164Z,22.50
2022-12-19T09:30:29.266Z,31.80
2022-12-19T09:33:02.041Z,28.80
2022-12-19T09:35:33.112Z,25.20
2022-12-19T09:38:04.771Z,26.50
2022-12-19T09:43:23.743Z,18.10
2022-12-19T09:46:04.158Z,20.00
2022-12-19T09:48:35.456Z,24.40
2022-12-19T09:51:12.687Z,23.40
2022-12-19T09:53:57.154Z,21.30
2022-12-19T09:56:33.969Z,17.30
2022-12-19T09:59:25.200Z,16.30
2022-12-19T10:02:02.952Z,21.80
2022-12-19T10:04:37.372Z,25.70
2022-12-19T10:07:29.078Z,16.80
2022-12-19T10:11:55.491Z,19.00
2022-12-19T10:13:13.016Z,17.70
2022-12-19T10:15:59.920Z,19.30
2022-12-19T10:18:45.193Z,22.00
2022-12-19T10:21:58.934Z,24.40
2022-12-19T10:25:08.340Z,29.60
2022-12-19T10:27:58.570Z,30.10
2022-12-19T10:33:24.047Z,23.90
2022-12-19T10:36:02.135Z,20.60
2022-12-19T10:38:47.970Z,15.00
2022-12-19T10:41:25.855Z,25.70
2022-12-19T10:44:03.357Z,25.00
2022-12-19T10:46:40.674Z,19.90
2022-12-19T10:49:19.109Z,26.70
2022-12-19T10:52:00.199Z,21.20
2022-12-19T10:54:41.957Z,21.20
2022-12-19T10:57:24.534Z,26.40
2022-12-19T11:00:01.140Z,21.90
2022-12-19T11:02:45.149Z,26.90
2022-12-19T11:05:32.059Z,28.90
2022-12-19T11:08:12.249Z,23.00
2022-12-19T11:12:42.475Z,24.40
2022-12-19T11:17:47.723Z,22.90
2022-12-19T11:21:21.951Z,29.70
2022-12-19T11:29:27.069Z,32.10
2022-12-19T11:29:32.717Z,23.50
2022-12-19T11:29:34.224Z,20.80
2022-12-19T11:30:42.986Z,23.50
2022-12-19T11:34:21.389Z,20.60
2022-12-19T11:36:58.033Z,27.30
2022-12-19T11:39:38.044Z,25.70
2022-12-19T11:42:18.231Z,22.00
2022-12-19T11:44:57.087Z,26.50
2022-12-19T11:47:37.039Z,27.90
2022-12-19T11:50:15.920Z,36.80
2022-12-19T11:53:04.135Z,26.10
2022-12-19T11:55:45.475Z,26.80
2022-12-19T11:58:16.446Z,26.80
2022-12-19T12:00:55.292Z,25.80
2022-12-19T12:04:02.192Z,23.00
2022-12-19T12:06:39.807Z,16.80
2022-12-19T12:12:28.387Z,23.50
2022-12-19T12:19:49.971Z,27.00
2022-12-19T12:27:43.714Z,27.10
2022-12-19T12:31:17.977Z,20.40
2022-12-19T12:31:18.383Z,19.10
2022-12-19T12:31:48.508Z,25.80
2022-12-19T12:32:03.744Z,23.70
2022-12-19T12:35:54.206Z,52.70
2022-12-19T12:39:58.078Z,21.00
2022-12-19T12:42:40.339Z,25.30
2022-12-19T12:45:21.434Z,21.00
2022-12-19T12:47:54.380Z,20.70
2022-12-19T12:50:27.130Z,30.20
2022-12-19T12:53:01.475Z,28.00
2022-12-19T12:55:37.446Z,86.20
2022-12-19T12:58:30.335Z,25.10
2022-12-19T13:01:16.246Z,68.20
2022-12-19T13:03:59.996Z,35.60
2022-12-19T13:06:37.790Z,34.60
2022-12-19T13:12:14.038Z,30.70
2022-12-19T13:14:48.927Z,31.50
2022-12-19T13:17:47.043Z,27.10
2022-12-19T13:20:44.580Z,22.20
2022-12-19T13:25:56.711Z,21.50
2022-12-19T13:28:43.290Z,25.00
2022-12-19T13:31:23.523Z,18.90
2022-12-19T13:34:20.271Z,21.90
2022-12-19T13:40:02.472Z,28.10
2022-12-19T13:40:12.062Z,18.80
2022-12-19T13:43:13.936Z,21.70
2022-12-19T13:45:52.599Z,24.10
2022-12-19T13:48:31.166Z,20.20
2022-12-19T13:51:07.267Z,22.60
2022-12-19T13:53:39.415Z,19.80
2022-12-19T13:56:16.000Z,29.90
2022-12-19T13:58:50.730Z,23.00
2022-12-19T14:01:32.125Z,27.60
2022-12-19T14:04:08.782Z,27.40
2022-12-19T14:06:44.815Z,23.10
2022-12-19T14:11:25.102Z,26.40
2022-12-19T14:13:46.100Z,24.00
2022-12-19T14:15:37.346Z,19.50
2022-12-19T14:18:44.253Z,24.00
2022-12-19T14:22:05.320Z,18.40
2022-12-19T14:24:20.015Z,22.10
2022-12-19T14:28:17.605Z,29.10
2022-12-19T14:30:27.401Z,20.60
2022-12-19T14:33:40.581Z,24.80
2022-12-19T14:36:11.337Z,22.40
2022-12-19T14:39:24.147Z,23.10
2022-12-19T14:42:12.099Z,22.30
2022-12-19T14:53:10.811Z,27.50
2022-12-19T14:54:08.506Z,23.40
2022-12-19T14:54:27.813Z,24.20
2022-12-19T14:54:51.480Z,26.30
2022-12-19T14:59:27.959Z,23.10
2022-12-19T15:02:05.187Z,21.00
2022-12-19T15:04:53.081Z,23.80
2022-12-19T15:07:29.747Z,22.60
2022-12-19T15:11:05.269Z,21.60
2022-12-19T15:14:51.840Z,24.70
2022-12-19T15:16:26.857Z,19.70
2022-12-19T15:18:59.330Z,27.30
2022-12-19T15:21:32.192Z,27.70
2022-12-19T15:24:03.086Z,30.30
2022-12-19T15:26:49.575Z,38.80
2022-12-19T15:29:22.274Z,22.60
2022-12-19T15:31:53.613Z,25.40
2022-12-19T15:34:36.771Z,24.70
2022-12-19T15:37:10.581Z,28.10
2022-12-19T15:39:41.923Z,25.90
2022-12-19T15:42:20.108Z,20.70
2022-12-19T15:44:52.987Z,21.00
2022-12-19T15:47:31.231Z,32.20
2022-12-19T15:50:06.683Z,22.60
2022-12-19T15:52:37.877Z,28.40
2022-12-19T15:55:13.252Z,26.60
2022-12-19T15:57:47.614Z,30.40
2022-12-19T16:00:24.233Z,19.10
2022-12-19T16:03:23.438Z,21.30
2022-12-19T16:05:48.426Z,26.80
2022-12-19T16:08:21.539Z,28.30
2022-12-19T16:11:01.138Z,25.40
2022-12-19T16:13:35.388Z,26.10
2022-12-19T16:16:15.072Z,22.30
2022-12-19T16:18:47.573Z,20.50
2022-12-19T16:21:29.656Z,23.50
2022-12-19T16:24:05.076Z,12.40
2022-12-19T16:26:38.668Z,21.70
2022-12-19T16:29:20.468Z,22.50
2022-12-19T16:31:51.633Z,18.80
2022-12-19T16:34:24.189Z,24.00
2022-12-19T16:36:55.391Z,26.00
2022-12-19T16:39:26.552Z,23.00
2022-12-19T16:41:57.819Z,19.80
2022-12-19T16:44:32.056Z,21.50
2022-12-19T16:47:03.078Z,22.20
2022-12-19T16:49:34.289Z,17.00
2022-12-19T16:52:05.396Z,20.50
2022-12-19T16:54:36.703Z,19.50
2022-12-19T16:57:17.726Z,30.30
2022-12-19T16:59:49.640Z,22.00
2022-12-19T17:02:44.036Z,25.00
2022-12-19T17:05:20.862Z,18.60
2022-12-19T17:07:52.805Z,20.00
2022-12-19T17:10:29.890Z,25.60
2022-12-19T17:13:03.309Z,18.10
2022-12-19T17:15:36.963Z,26.90
2022-12-19T17:18:14.080Z,22.80
2022-12-19T17:20:47.471Z,24.50
2022-12-19T17:23:20.815Z,25.60
2022-12-19T17:25:53.398Z,25.10
2022-12-19T17:28:24.400Z,22.50
2022-12-19T17:30:58.239Z,25.80
2022-12-19T17:33:34.610Z,19.90
2022-12-19T17:36:07.420Z,27.00
2022-12-19T17:38:38.803Z,21.50
2022-12-19T17:41:16.429Z,24.60
2022-12-19T17:43:47.446Z,28.60
2022-12-19T17:46:21.799Z,27.30
2022-12-19T17:48:54.655Z,27.90
2022-12-19T17:51:25.839Z,18.90
2022-12-19T17:53:56.826Z,21.30
2022-12-19T17:56:27.822Z,25.90
2022-12-19T17:58:58.646Z,28.40
2022-12-19T18:01:38.806Z,25.70
2022-12-19T18:04:15.424Z,22.70
2022-12-19T18:06:47.728Z,23.70
2022-12-19T18:09:23.727Z,26.50
2022-12-19T18:11:55.225Z,19.90
2022-12-19T18:14:26.072Z,25.10
2022-12-19T18:16:57.426Z,27.00
2022-12-19T18:19:30.634Z,23.10
2022-12-19T18:22:01.522Z,17.30
2022-12-19T18:24:32.607Z,28.40
2022-12-19T18:27:03.522Z,27.40
2022-12-19T18:29:34.862Z,25.60
2022-12-19T18:32:05.965Z,27.40
2022-12-19T18:34:37.229Z,23.70
2022-12-19T18:37:12.562Z,23.80
2022-12-19T18:39:43.614Z,24.70
2022-12-19T18:42:21.863Z,26.50
2022-12-19T18:44:52.840Z,24.90
2022-12-19T18:47:26.190Z,26.20
2022-12-19T18:49:57.437Z,26.00
2022-12-19T18:52:28.611Z,30.50
2022-12-19T18:54:59.616Z,21.20
2022-12-19T18:57:30.820Z,35.60
2022-12-19T19:00:01.964Z,22.80
2022-12-19T19:02:33.449Z,28.20
2022-12-19T19:05:05.078Z,25.20
2022-12-19T19:07:36.131Z,22.60
2022-12-19T19:10:19.951Z,23.70
2022-12-19T19:12:51.587Z,26.90
2022-12-19T19:15:25.019Z,24.60
2022-12-19T19:18:00.973Z,27.30
2022-12-19T19:20:34.292Z,27.60
2022-12-19T19:23:08.539Z,26.50
2022-12-19T19:25:39.472Z,22.10
2022-12-19T19:28:11.071Z,23.30
2022-12-19T19:30:43.179Z,27.60
2022-12-19T19:33:18.503Z,25.40
2022-12-19T19:35:52.432Z,61.90
2022-12-19T19:38:24.534Z,33.60
2022-12-19T19:40:55.534Z,29.90
2022-12-19T19:43:27.853Z,28.80
2022-12-19T19:45:58.765Z,24.30
2022-12-19T19:48:29.960Z,26.40
2022-12-19T19:51:01.237Z,29.00
2022-12-19T19:53:32.282Z,28.40
2022-12-19T19:56:04.970Z,24.80
2022-12-19T19:58:36.307Z,29.80
2022-12-19T20:01:11.569Z,25.20
2022-12-19T20:03:44.787Z,18.90
2022-12-19T20:06:16.513Z,22.00
2022-12-19T20:08:48.057Z,21.90
2022-12-19T20:11:20.512Z,29.20
2022-12-19T20:13:51.867Z,17.40
2022-12-19T20:16:22.932Z,25.30
2022-12-19T20:18:54.913Z,28.60
2022-12-19T20:21:26.084Z,33.80
2022-12-19T20:23:57.496Z,23.00
2022-12-19T20:26:28.380Z,24.50
2022-12-19T20:28:59.227Z,25.60
2022-12-19T20:31:31.325Z,32.30
2022-12-19T20:34:02.346Z,30.90
2022-12-19T20:36:33.941Z,26.40
2022-12-19T20:39:06.392Z,25.30
2022-12-19T20:41:37.700Z,26.10
2022-12-19T20:44:08.983Z,25.60
2022-12-19T20:46:40.220Z,29.40
2022-12-19T20:49:11.433Z,17.20
2022-12-19T20:51:43.799Z,21.70
2022-12-19T20:54:15.812Z,26.20
2022-12-19T20:56:47.101Z,24.50
2022-12-19T20:59:18.345Z,24.10
2022-12-19T21:01:49.311Z,21.50
2022-12-19T21:04:20.488Z,22.30
2022-12-19T21:06:51.565Z,25.60
2022-12-19T21:09:22.587Z,19.80
2022-12-19T21:11:53.655Z,21.10
2022-12-19T21:14:24.913Z,26.50
2022-12-19T21:16:55.952Z,22.90
2022-12-19T21:19:26.943Z,26.30
2022-12-19T21:21:58.033Z,19.30
2022-12-19T21:24:29.806Z,24.80
2022-12-19T21:27:00.660Z,25.70
2022-12-19T21:29:31.731Z,21.30
2022-12-19T21:32:03.011Z,27.70
2022-12-19T21:34:33.910Z,16.50
2022-12-19T21:37:04.929Z,21.00
2022-12-19T21:39:35.802Z,21.40
2022-12-19T21:42:06.903Z,24.20
2022-12-19T21:44:38.071Z,24.70
2022-12-19T21:47:09.335Z,21.20
2022-12-19T21:49:40.229Z,25.60
2022-12-19T21:52:11.412Z,22.40
2022-12-19T21:54:42.616Z,29.70
2022-12-19T21:57:13.608Z,35.90
2022-12-19T21:59:44.817Z,61.20
2022-12-19T22:02:15.832Z,45.40
2022-12-19T22:04:47.247Z,34.70
2022-12-19T22:07:18.376Z,26.70
2022-12-19T22:09:49.760Z,29.10
2022-12-19T22:12:20.793Z,26.70
2022-12-19T22:14:52.166Z,27.20
2022-12-19T22:19:53.166Z,29.50
2022-12-19T22:22:24.428Z,33.40
2022-12-19T22:24:55.842Z,25.70
2022-12-19T22:27:26.680Z,31.30
2022-12-19T22:30:03.555Z,29.40
2022-12-19T22:32:39.760Z,29.60
2022-12-19T22:35:11.410Z,27.20
2022-12-19T22:40:13.859Z,27.80
2022-12-19T22:42:44.916Z,33.30
2022-12-19T22:45:16.061Z,24.40
2022-12-19T22:47:47.073Z,28.80
2022-12-19T22:50:18.185Z,29.40
2022-12-19T22:52:49.407Z,24.20
2022-12-19T22:55:20.460Z,19.80
2022-12-19T22:57:51.607Z,27.40
2022-12-19T23:00:23.197Z,24.40
2022-12-19T23:02:54.453Z,19.60
2022-12-19T23:05:25.611Z,19.30
2022-12-19T23:07:56.620Z,24.30
2022-12-19T23:10:28.851Z,24.10
2022-12-19T23:13:00.059Z,28.80
2022-12-19T23:15:31.169Z,19.20
2022-12-19T23:18:02.362Z,27.90
2022-12-19T23:20:33.854Z,26.40
2022-12-19T23:23:05.612Z,27.10
2022-12-19T23:25:41.961Z,21.70
2022-12-19T23:28:13.020Z,19.00
2022-12-19T23:30:44.273Z,27.00
2022-12-19T23:33:15.177Z,29.60
2022-12-19T23:35:46.944Z,30.90
2022-12-19T23:38:17.803Z,30.30
2022-12-19T23:40:49.105Z,33.30
2022-12-19T23:43:20.024Z,27.10
2022-12-19T23:45:51.361Z,23.70
2022-12-19T23:48:26.619Z,27.30
2022-12-19T23:51:01.959Z,31.80
2022-12-19T23:53:33.483Z,25.60
2022-12-19T23:56:07.430Z,22.00
2022-12-19T23:58:38.542Z,27.10
